sensor_id;sensor_type;location;lat;lon;timestamp;pressure;altitude;pressure_sealevel;temperature;humidity
9141;BME280;46330;50.822;7.126;2022-10-30T00:02:21;101123.56;;;16.33;79.37
9141;BME280;46330;50.822;7.126;2022-10-30T00:04:51;101126.31;;;16.30;79.73
9141;BME280;46330;50.822;7.126;2022-10-30T00:07:18;101107.91;;;16.28;79.72
9141;BME280;46330;50.822;7.126;2022-10-30T00:09:46;101122.13;;;16.24;80.16
9141;BME280;46330;50.822;7.126;2022-10-30T00:12:14;101118.72;;;16.21;80.54
9141;BME280;46330;50.822;7.126;2022-10-30T00:14:42;101112.56;;;16.20;80.55
9141;BME280;46330;50.822;7.126;2022-10-30T00:17:10;101124.97;;;16.18;80.68
9141;BME280;46330;50.822;7.126;2022-10-30T00:19:37;101121.50;;;16.16;80.84
9141;BME280;46330;50.822;7.126;2022-10-30T00:22:07;101117.19;;;16.13;81.14
9141;BME280;46330;50.822;7.126;2022-10-30T00:24:34;101118.03;;;16.16;81.12
9141;BME280;46330;50.822;7.126;2022-10-30T00:27:02;101118.13;;;16.12;81.00
9141;BME280;46330;50.822;7.126;2022-10-30T00:29:30;101115.38;;;16.16;80.80
9141;BME280;46330;50.822;7.126;2022-10-30T00:31:58;101120.78;;;16.12;80.90
9141;BME280;46330;50.822;7.126;2022-10-30T00:34:26;101124.13;;;16.16;80.63
9141;BME280;46330;50.822;7.126;2022-10-30T00:36:53;101132.94;;;16.17;80.35
9141;BME280;46330;50.822;7.126;2022-10-30T00:39:22;101130.25;;;16.18;80.27
9141;BME280;46330;50.822;7.126;2022-10-30T00:41:50;101130.25;;;16.18;80.35
9141;BME280;46330;50.822;7.126;2022-10-30T00:44:37;101132.81;;;16.20;80.45
9141;BME280;46330;50.822;7.126;2022-10-30T00:47:12;101127.59;;;16.18;80.64
9141;BME280;46330;50.822;7.126;2022-10-30T00:49:56;101124.09;;;16.18;80.87
9141;BME280;46330;50.822;7.126;2022-10-30T00:52:28;101115.31;;;16.17;80.16
9141;BME280;46330;50.822;7.126;2022-10-30T00:55:01;101127.75;;;16.13;80.95
9141;BME280;46330;50.822;7.126;2022-10-30T00:57:29;101118.84;;;16.16;80.50
9141;BME280;46330;50.822;7.126;2022-10-30T00:59:59;101117.16;;;16.15;80.76
9141;BME280;46330;50.822;7.126;2022-10-30T01:02:27;101114.56;;;16.13;80.81
9141;BME280;46330;50.822;7.126;2022-10-30T01:04:55;101113.75;;;16.11;81.00
9141;BME280;46330;50.822;7.126;2022-10-30T01:07:23;101116.41;;;16.11;80.81
9141;BME280;46330;50.822;7.126;2022-10-30T01:09:51;101112.09;;;16.09;80.87
9141;BME280;46330;50.822;7.126;2022-10-30T01:12:20;101108.63;;;16.07;81.13
9141;BME280;46330;50.822;7.126;2022-10-30T01:14:50;101115.69;;;16.06;81.01
9141;BME280;46330;50.822;7.126;2022-10-30T01:17:55;101116.53;;;16.07;80.89
9141;BME280;46330;50.822;7.126;2022-10-30T01:20:40;101113.31;;;15.99;81.03
9141;BME280;46330;50.822;7.126;2022-10-30T01:23:23;101110.81;;;15.94;81.48
9141;BME280;46330;50.822;7.126;2022-10-30T01:26:02;101118.03;;;15.89;81.80
9141;BME280;46330;50.822;7.126;2022-10-30T01:28:57;101118.25;;;15.83;82.25
9141;BME280;46330;50.822;7.126;2022-10-30T01:31:36;101117.69;;;15.74;82.90
9141;BME280;46330;50.822;7.126;2022-10-30T01:34:16;101114.34;;;15.69;82.99
9141;BME280;46330;50.822;7.126;2022-10-30T01:36:51;101116.81;;;15.73;82.71
9141;BME280;46330;50.822;7.126;2022-10-30T01:39:23;101116.88;;;15.72;83.22
9141;BME280;46330;50.822;7.126;2022-10-30T01:41:51;101115.28;;;15.66;82.96
9141;BME280;46330;50.822;7.126;2022-10-30T01:44:25;101118.88;;;15.64;83.20
9141;BME280;46330;50.822;7.126;2022-10-30T01:47:08;101108.63;;;15.54;83.87
9141;BME280;46330;50.822;7.126;2022-10-30T01:50:00;101117.50;;;15.52;83.94
9141;BME280;46330;50.822;7.126;2022-10-30T01:52:36;101113.09;;;15.52;83.89
9141;BME280;46330;50.822;7.126;2022-10-30T01:55:15;101115.88;;;15.48;84.59
9141;BME280;46330;50.822;7.126;2022-10-30T01:57:52;101110.81;;;15.40;85.22
9141;BME280;46330;50.822;7.126;2022-10-30T02:00:23;101120.59;;;15.37;85.28
9141;BME280;46330;50.822;7.126;2022-10-30T02:02:51;101118.84;;;15.36;85.59
9141;BME280;46330;50.822;7.126;2022-10-30T02:05:27;101124.19;;;15.34;86.14
9141;BME280;46330;50.822;7.126;2022-10-30T02:07:57;101120.72;;;15.32;86.14
9141;BME280;46330;50.822;7.126;2022-10-30T02:10:26;101130.47;;;15.30;86.09
9141;BME280;46330;50.822;7.126;2022-10-30T02:12:54;101118.34;;;15.25;86.32
9141;BME280;46330;50.822;7.126;2022-10-30T02:15:25;101110.03;;;15.09;87.24
9141;BME280;46330;50.822;7.126;2022-10-30T02:17:53;101098.16;;;14.94;88.39
9141;BME280;46330;50.822;7.126;2022-10-30T02:20:24;101088.16;;;14.78;89.54
9141;BME280;46330;50.822;7.126;2022-10-30T02:22:52;101094.09;;;14.84;88.94
9141;BME280;46330;50.822;7.126;2022-10-30T02:25:29;101097.50;;;14.88;88.74
9141;BME280;46330;50.822;7.126;2022-10-30T02:27:57;101094.91;;;14.86;88.91
9141;BME280;46330;50.822;7.126;2022-10-30T02:30:28;101094.88;;;14.88;88.47
9141;BME280;46330;50.822;7.126;2022-10-30T02:32:56;101103.81;;;14.82;89.05
9141;BME280;46330;50.822;7.126;2022-10-30T02:35:25;101101.50;;;14.72;89.71
9141;BME280;46330;50.822;7.126;2022-10-30T02:37:53;101106.84;;;14.69;89.75
9141;BME280;46330;50.822;7.126;2022-10-30T02:40:21;101092.75;;;14.70;89.55
9141;BME280;46330;50.822;7.126;2022-10-30T02:42:51;101093.78;;;14.66;89.79
9141;BME280;46330;50.822;7.126;2022-10-30T02:45:19;101094.84;;;14.59;90.36
9141;BME280;46330;50.822;7.126;2022-10-30T02:47:47;101095.81;;;14.56;90.60
9141;BME280;46330;50.822;7.126;2022-10-30T02:50:15;101094.16;;;14.52;90.95
9141;BME280;46330;50.822;7.126;2022-10-30T02:52:44;101090.56;;;14.54;90.84
9141;BME280;46330;50.822;7.126;2022-10-30T02:55:12;101094.13;;;14.53;90.91
9141;BME280;46330;50.822;7.126;2022-10-30T02:57:40;101094.84;;;14.59;90.49
9141;BME280;46330;50.822;7.126;2022-10-30T03:00:09;101093.88;;;14.63;90.33
9141;BME280;46330;50.822;7.126;2022-10-30T03:02:38;101092.25;;;14.57;90.44
9141;BME280;46330;50.822;7.126;2022-10-30T03:05:06;101091.41;;;14.57;90.25
9141;BME280;46330;50.822;7.126;2022-10-30T03:07:34;101101.78;;;14.61;90.45
9141;BME280;46330;50.822;7.126;2022-10-30T03:10:04;101094.81;;;14.60;90.32
9141;BME280;46330;50.822;7.126;2022-10-30T03:12:32;101092.38;;;14.52;90.57
9141;BME280;46330;50.822;7.126;2022-10-30T03:15:00;101093.44;;;14.47;90.87
9141;BME280;46330;50.822;7.126;2022-10-30T03:17:28;101095.84;;;14.54;90.84
9141;BME280;46330;50.822;7.126;2022-10-30T03:19:56;101103.00;;;14.49;90.82
9141;BME280;46330;50.822;7.126;2022-10-30T03:22:24;101097.84;;;14.46;91.01
9141;BME280;46330;50.822;7.126;2022-10-30T03:24:52;101099.69;;;14.43;91.16
9141;BME280;46330;50.822;7.126;2022-10-30T03:27:21;101098.88;;;14.41;91.32
9141;BME280;46330;50.822;7.126;2022-10-30T03:29:49;101097.25;;;14.35;91.60
9141;BME280;46330;50.822;7.126;2022-10-30T03:32:17;101107.06;;;14.29;91.92
9141;BME280;46330;50.822;7.126;2022-10-30T03:34:50;101097.63;;;14.20;92.62
9141;BME280;46330;50.822;7.126;2022-10-30T03:37:18;101097.88;;;14.11;92.98
9141;BME280;46330;50.822;7.126;2022-10-30T03:39:46;101101.50;;;14.07;93.56
9141;BME280;46330;50.822;7.126;2022-10-30T03:42:13;101097.22;;;14.03;93.81
9141;BME280;46330;50.822;7.126;2022-10-30T03:44:43;101105.16;;;14.01;93.89
9141;BME280;46330;50.822;7.126;2022-10-30T03:47:11;101112.13;;;14.04;93.68
9141;BME280;46330;50.822;7.126;2022-10-30T03:49:42;101105.19;;;14.00;93.77
9141;BME280;46330;50.822;7.126;2022-10-30T03:52:12;101111.91;;;13.78;94.87
9141;BME280;46330;50.822;7.126;2022-10-30T03:54:40;101109.19;;;13.81;95.11
9141;BME280;46330;50.822;7.126;2022-10-30T03:57:11;101115.34;;;13.80;94.71
9141;BME280;46330;50.822;7.126;2022-10-30T03:59:51;101104.63;;;13.52;96.82
9141;BME280;46330;50.822;7.126;2022-10-30T04:02:43;101104.78;;;13.46;97.83
9141;BME280;46330;50.822;7.126;2022-10-30T04:05:12;101094.91;;;13.57;97.17
9141;BME280;46330;50.822;7.126;2022-10-30T04:07:40;101102.00;;;13.54;97.42
9141;BME280;46330;50.822;7.126;2022-10-30T04:10:08;101103.63;;;13.58;97.02
9141;BME280;46330;50.822;7.126;2022-10-30T04:12:37;101103.69;;;13.55;96.84
9141;BME280;46330;50.822;7.126;2022-10-30T04:15:07;101101.13;;;13.52;97.09
9141;BME280;46330;50.822;7.126;2022-10-30T04:17:36;101113.38;;;13.54;97.07
9141;BME280;46330;50.822;7.126;2022-10-30T04:20:05;101110.66;;;13.57;96.93
9141;BME280;46330;50.822;7.126;2022-10-30T04:22:33;101114.34;;;13.48;97.07
9141;BME280;46330;50.822;7.126;2022-10-30T04:25:01;101116.97;;;13.48;97.01
9141;BME280;46330;50.822;7.126;2022-10-30T04:27:30;101129.31;;;13.46;97.08
9141;BME280;46330;50.822;7.126;2022-10-30T04:29:57;101128.50;;;13.44;97.19
9141;BME280;46330;50.822;7.126;2022-10-30T04:32:27;101123.31;;;13.41;97.16
9141;BME280;46330;50.822;7.126;2022-10-30T04:34:55;101118.38;;;13.26;98.21
9141;BME280;46330;50.822;7.126;2022-10-30T04:37:24;101121.78;;;13.30;98.42
9141;BME280;46330;50.822;7.126;2022-10-30T04:39:51;101121.72;;;13.34;98.23
9141;BME280;46330;50.822;7.126;2022-10-30T04:42:24;101117.47;;;13.29;98.00
9141;BME280;46330;50.822;7.126;2022-10-30T04:44:52;101118.44;;;13.23;98.74
9141;BME280;46330;50.822;7.126;2022-10-30T04:47:20;101118.41;;;13.25;98.93
9141;BME280;46330;50.822;7.126;2022-10-30T04:49:49;101124.56;;;13.24;98.47
9141;BME280;46330;50.822;7.126;2022-10-30T04:52:17;101119.50;;;13.15;98.10
9141;BME280;46330;50.822;7.126;2022-10-30T04:54:45;101124.03;;;13.10;97.99
9141;BME280;46330;50.822;7.126;2022-10-30T04:57:13;101129.44;;;13.01;98.70
9141;BME280;46330;50.822;7.126;2022-10-30T04:59:42;101126.03;;;12.95;98.69
9141;BME280;46330;50.822;7.126;2022-10-30T05:02:09;101130.53;;;12.89;99.16
9141;BME280;46330;50.822;7.126;2022-10-30T05:04:37;101132.44;;;12.82;99.90
9141;BME280;46330;50.822;7.126;2022-10-30T05:07:07;101123.84;;;12.76;100.00
9141;BME280;46330;50.822;7.126;2022-10-30T05:09:35;101116.88;;;12.73;100.00
9141;BME280;46330;50.822;7.126;2022-10-30T05:12:03;101122.16;;;12.72;100.00
9141;BME280;46330;50.822;7.126;2022-10-30T05:14:37;101123.97;;;12.70;100.00
9141;BME280;46330;50.822;7.126;2022-10-30T05:17:05;101114.69;;;12.52;100.00
9141;BME280;46330;50.822;7.126;2022-10-30T05:19:33;101123.41;;;12.53;100.00
9141;BME280;46330;50.822;7.126;2022-10-30T05:22:01;101116.44;;;12.52;100.00
9141;BME280;46330;50.822;7.126;2022-10-30T05:24:30;101112.97;;;12.50;100.00
9141;BME280;46330;50.822;7.126;2022-10-30T05:26:58;101108.63;;;12.49;100.00
9141;BME280;46330;50.822;7.126;2022-10-30T05:29:27;101105.41;;;12.33;100.00
9141;BME280;46330;50.822;7.126;2022-10-30T05:31:55;101106.44;;;12.26;100.00
9141;BME280;46330;50.822;7.126;2022-10-30T05:34:22;101107.25;;;12.29;100.00
9141;BME280;46330;50.822;7.126;2022-10-30T05:36:52;101099.34;;;12.31;100.00
9141;BME280;46330;50.822;7.126;2022-10-30T05:39:20;101096.72;;;12.31;100.00
9141;BME280;46330;50.822;7.126;2022-10-30T05:41:51;101088.91;;;12.29;100.00
9141;BME280;46330;50.822;7.126;2022-10-30T05:44:21;101093.34;;;12.24;100.00
9141;BME280;46330;50.822;7.126;2022-10-30T05:47:10;101094.22;;;12.26;100.00
9141;BME280;46330;50.822;7.126;2022-10-30T05:49:42;101088.03;;;12.29;100.00
9141;BME280;46330;50.822;7.126;2022-10-30T05:52:15;101075.81;;;12.28;100.00
9141;BME280;46330;50.822;7.126;2022-10-30T05:54:42;101070.44;;;12.34;100.00
9141;BME280;46330;50.822;7.126;2022-10-30T05:57:20;101071.25;;;12.36;100.00
9141;BME280;46330;50.822;7.126;2022-10-30T05:59:48;101073.88;;;12.36;100.00
9141;BME280;46330;50.822;7.126;2022-10-30T06:02:16;101074.00;;;12.31;100.00
9141;BME280;46330;50.822;7.126;2022-10-30T06:04:47;101060.00;;;12.32;100.00
9141;BME280;46330;50.822;7.126;2022-10-30T06:07:16;101072.34;;;12.26;100.00
9141;BME280;46330;50.822;7.126;2022-10-30T06:09:44;101077.69;;;12.21;100.00
9141;BME280;46330;50.822;7.126;2022-10-30T06:12:39;101070.72;;;12.20;100.00
9141;BME280;46330;50.822;7.126;2022-10-30T06:15:21;101078.78;;;12.10;100.00
9141;BME280;46330;50.822;7.126;2022-10-30T06:17:51;101085.81;;;12.08;100.00
9141;BME280;46330;50.822;7.126;2022-10-30T06:20:34;101087.50;;;12.10;100.00
9141;BME280;46330;50.822;7.126;2022-10-30T06:23:22;101084.94;;;12.07;100.00
9141;BME280;46330;50.822;7.126;2022-10-30T06:25:56;101088.50;;;12.03;100.00
9141;BME280;46330;50.822;7.126;2022-10-30T06:28:36;101088.63;;;11.96;100.00
9141;BME280;46330;50.822;7.126;2022-10-30T06:31:04;101079.88;;;11.98;100.00
9141;BME280;46330;50.822;7.126;2022-10-30T06:33:36;101086.88;;;11.96;100.00
9141;BME280;46330;50.822;7.126;2022-10-30T06:36:04;101089.50;;;11.98;100.00
9141;BME280;46330;50.822;7.126;2022-10-30T06:38:32;101074.63;;;11.98;100.00
9141;BME280;46330;50.822;7.126;2022-10-30T06:41:00;101075.47;;;11.99;100.00
9141;BME280;46330;50.822;7.126;2022-10-30T06:43:52;101067.53;;;12.05;100.00
9141;BME280;46330;50.822;7.126;2022-10-30T06:46:23;101083.97;;;12.11;100.00
9141;BME280;46330;50.822;7.126;2022-10-30T06:48:58;101071.63;;;12.18;100.00
9141;BME280;46330;50.822;7.126;2022-10-30T06:51:26;101090.72;;;12.24;100.00
9141;BME280;46330;50.822;7.126;2022-10-30T06:53:56;101088.91;;;12.29;100.00
9141;BME280;46330;50.822;7.126;2022-10-30T06:56:50;101085.31;;;12.33;100.00
9141;BME280;46330;50.822;7.126;2022-10-30T06:59:48;101092.41;;;12.28;100.00
9141;BME280;46330;50.822;7.126;2022-10-30T07:02:34;101092.09;;;12.45;100.00
9141;BME280;46330;50.822;7.126;2022-10-30T07:05:06;101105.34;;;12.82;100.00
9141;BME280;46330;50.822;7.126;2022-10-30T07:07:34;101102.31;;;13.00;99.27
9141;BME280;46330;50.822;7.126;2022-10-30T07:10:02;101104.41;;;13.24;97.79
9141;BME280;46330;50.822;7.126;2022-10-30T07:12:51;101105.66;;;13.45;95.48
9141;BME280;46330;50.822;7.126;2022-10-30T07:15:37;101117.69;;;13.57;94.94
9141;BME280;46330;50.822;7.126;2022-10-30T07:18:17;101107.13;;;13.92;92.64
9141;BME280;46330;50.822;7.126;2022-10-30T07:20:45;101122.00;;;14.27;90.47
9141;BME280;46330;50.822;7.126;2022-10-30T07:23:14;101121.25;;;14.56;88.07
9141;BME280;46330;50.822;7.126;2022-10-30T07:25:42;101126.16;;;14.98;86.13
9141;BME280;46330;50.822;7.126;2022-10-30T07:28:31;101121.66;;;15.02;85.71
9141;BME280;46330;50.822;7.126;2022-10-30T07:31:20;101121.44;;;15.10;84.60
9141;BME280;46330;50.822;7.126;2022-10-30T07:34:29;101128.41;;;15.40;83.50
9141;BME280;46330;50.822;7.126;2022-10-30T07:37:15;101125.00;;;15.66;82.27
9141;BME280;46330;50.822;7.126;2022-10-30T07:39:48;101123.63;;;15.80;81.66
9141;BME280;46330;50.822;7.126;2022-10-30T07:42:23;101121.59;;;16.13;79.43
9141;BME280;46330;50.822;7.126;2022-10-30T07:45:09;101124.69;;;16.26;78.27
9141;BME280;46330;50.822;7.126;2022-10-30T07:48:16;101129.84;;;16.55;77.17
9141;BME280;46330;50.822;7.126;2022-10-30T07:50:52;101123.84;;;16.25;77.66
9141;BME280;46330;50.822;7.126;2022-10-30T07:53:20;101123.84;;;16.25;78.05
9141;BME280;46330;50.822;7.126;2022-10-30T07:55:48;101125.63;;;16.25;78.06
9141;BME280;46330;50.822;7.126;2022-10-30T07:58:36;101123.44;;;16.62;76.49
9141;BME280;46330;50.822;7.126;2022-10-30T08:01:29;101139.47;;;17.27;73.62
9141;BME280;46330;50.822;7.126;2022-10-30T08:04:10;101135.06;;;16.81;74.21
9141;BME280;46330;50.822;7.126;2022-10-30T08:06:39;101122.00;;;17.00;73.91
9141;BME280;46330;50.822;7.126;2022-10-30T08:09:07;101125.13;;;17.09;73.45
9141;BME280;46330;50.822;7.126;2022-10-30T08:11:35;101129.91;;;17.23;73.83
9141;BME280;46330;50.822;7.126;2022-10-30T08:14:04;101124.97;;;17.14;73.41
9141;BME280;46330;50.822;7.126;2022-10-30T08:16:32;101137.75;;;17.03;74.07
9141;BME280;46330;50.822;7.126;2022-10-30T08:19:01;101132.56;;;17.23;73.14
9141;BME280;46330;50.822;7.126;2022-10-30T08:21:31;101130.88;;;17.65;72.06
9141;BME280;46330;50.822;7.126;2022-10-30T08:24:14;101133.78;;;17.59;71.96
9141;BME280;46330;50.822;7.126;2022-10-30T08:26:44;101128.06;;;16.79;74.62
9141;BME280;46330;50.822;7.126;2022-10-30T08:29:13;101128.59;;;17.11;73.94
9141;BME280;46330;50.822;7.126;2022-10-30T08:31:42;101125.09;;;17.11;74.47
9141;BME280;46330;50.822;7.126;2022-10-30T08:34:16;101122.06;;;16.98;74.91
9141;BME280;46330;50.822;7.126;2022-10-30T08:36:52;101129.41;;;17.13;74.53
9141;BME280;46330;50.822;7.126;2022-10-30T08:39:21;101137.69;;;17.04;74.57
9141;BME280;46330;50.822;7.126;2022-10-30T08:42:09;101131.44;;;17.29;74.03
9141;BME280;46330;50.822;7.126;2022-10-30T08:44:42;101139.00;;;17.61;72.35
9141;BME280;46330;50.822;7.126;2022-10-30T08:47:45;101137.28;;;17.60;72.48
9141;BME280;46330;50.822;7.126;2022-10-30T08:50:13;101131.41;;;17.95;71.80
9141;BME280;46330;50.822;7.126;2022-10-30T08:52:43;101138.97;;;18.04;70.44
9141;BME280;46330;50.822;7.126;2022-10-30T08:55:18;101133.06;;;17.98;70.86
9141;BME280;46330;50.822;7.126;2022-10-30T08:57:46;101115.88;;;17.66;71.55
9141;BME280;46330;50.822;7.126;2022-10-30T09:00:14;101119.09;;;17.94;70.72
9141;BME280;46330;50.822;7.126;2022-10-30T09:03:02;101110.50;;;18.09;70.42
9141;BME280;46330;50.822;7.126;2022-10-30T09:05:49;101114.88;;;17.68;72.04
9141;BME280;46330;50.822;7.126;2022-10-30T09:08:41;101116.63;;;18.11;70.58
9141;BME280;46330;50.822;7.126;2022-10-30T09:11:14;101121.19;;;18.08;70.34
9141;BME280;46330;50.822;7.126;2022-10-30T09:13:43;101119.88;;;18.18;70.58
9141;BME280;46330;50.822;7.126;2022-10-30T09:16:11;101113.09;;;18.31;69.48
9141;BME280;46330;50.822;7.126;2022-10-30T09:18:40;101112.50;;;18.45;68.96
9141;BME280;46330;50.822;7.126;2022-10-30T09:21:08;101107.25;;;18.84;67.51
9141;BME280;46330;50.822;7.126;2022-10-30T09:23:43;101107.66;;;18.93;66.80
9141;BME280;46330;50.822;7.126;2022-10-30T09:26:30;101103.50;;;18.88;66.98
9141;BME280;46330;50.822;7.126;2022-10-30T09:29:21;101096.69;;;18.82;66.81
9141;BME280;46330;50.822;7.126;2022-10-30T09:32:08;101093.84;;;19.96;64.06
9141;BME280;46330;50.822;7.126;2022-10-30T09:34:48;101103.47;;;20.65;61.95
9141;BME280;46330;50.822;7.126;2022-10-30T09:37:22;101096.97;;;20.71;60.97
9141;BME280;46330;50.822;7.126;2022-10-30T09:39:55;101099.84;;;20.99;60.04
9141;BME280;46330;50.822;7.126;2022-10-30T09:42:42;101096.25;;;20.34;61.44
9141;BME280;46330;50.822;7.126;2022-10-30T09:45:40;101091.94;;;20.49;61.11
9141;BME280;46330;50.822;7.126;2022-10-30T09:48:31;101083.06;;;20.33;60.72
9141;BME280;46330;50.822;7.126;2022-10-30T09:51:17;101080.75;;;20.60;61.41
9141;BME280;46330;50.822;7.126;2022-10-30T09:54:03;101081.47;;;20.12;62.05
9141;BME280;46330;50.822;7.126;2022-10-30T09:56:44;101075.94;;;19.99;62.80
9141;BME280;46330;50.822;7.126;2022-10-30T09:59:23;101077.28;;;20.42;61.66
9141;BME280;46330;50.822;7.126;2022-10-30T10:02:00;101071.91;;;20.26;62.21
9141;BME280;46330;50.822;7.126;2022-10-30T10:04:37;101077.13;;;20.45;60.33
9141;BME280;46330;50.822;7.126;2022-10-30T10:07:15;101076.75;;;20.84;59.77
9141;BME280;46330;50.822;7.126;2022-10-30T10:10:05;101074.81;;;21.03;59.83
9141;BME280;46330;50.822;7.126;2022-10-30T10:12:49;101067.28;;;21.27;59.60
9141;BME280;46330;50.822;7.126;2022-10-30T10:15:32;101071.69;;;21.58;57.82
9141;BME280;46330;50.822;7.126;2022-10-30T10:18:03;101068.34;;;22.00;57.23
9141;BME280;46330;50.822;7.126;2022-10-30T10:20:35;101078.63;;;22.35;55.98
9141;BME280;46330;50.822;7.126;2022-10-30T10:23:16;101077.41;;;22.11;55.93
9141;BME280;46330;50.822;7.126;2022-10-30T10:25:52;101073.41;;;22.90;53.99
9141;BME280;46330;50.822;7.126;2022-10-30T10:28:34;101081.38;;;23.04;53.52
9141;BME280;46330;50.822;7.126;2022-10-30T10:31:13;101082.09;;;23.35;52.57
9141;BME280;46330;50.822;7.126;2022-10-30T10:33:50;101078.72;;;23.45;52.43
9141;BME280;46330;50.822;7.126;2022-10-30T10:36:34;101078.38;;;23.64;51.26
9141;BME280;46330;50.822;7.126;2022-10-30T10:39:15;101073.66;;;23.55;52.05
9141;BME280;46330;50.822;7.126;2022-10-30T10:41:56;101069.88;;;23.72;51.62
9141;BME280;46330;50.822;7.126;2022-10-30T10:44:45;101072.09;;;23.24;52.59
9141;BME280;46330;50.822;7.126;2022-10-30T10:47:47;101064.34;;;23.61;53.16
9141;BME280;46330;50.822;7.126;2022-10-30T10:50:23;101071.19;;;23.52;52.46
9141;BME280;46330;50.822;7.126;2022-10-30T10:52:55;101066.25;;;22.91;55.51
9141;BME280;46330;50.822;7.126;2022-10-30T10:55:30;101067.63;;;23.25;54.43
9141;BME280;46330;50.822;7.126;2022-10-30T10:58:06;101064.94;;;22.84;54.78
9141;BME280;46330;50.822;7.126;2022-10-30T11:00:35;101059.59;;;22.84;54.94
9141;BME280;46330;50.822;7.126;2022-10-30T11:03:08;101058.88;;;23.09;54.73
9141;BME280;46330;50.822;7.126;2022-10-30T11:05:40;101060.81;;;23.60;52.64
9141;BME280;46330;50.822;7.126;2022-10-30T11:08:12;101056.28;;;23.07;54.04
9141;BME280;46330;50.822;7.126;2022-10-30T11:10:41;101057.50;;;23.44;53.17
9141;BME280;46330;50.822;7.126;2022-10-30T11:13:11;101054.91;;;23.42;53.50
9141;BME280;46330;50.822;7.126;2022-10-30T11:15:49;101054.50;;;23.48;53.27
9141;BME280;46330;50.822;7.126;2022-10-30T11:18:20;101053.75;;;23.46;53.32
9141;BME280;46330;50.822;7.126;2022-10-30T11:20:56;101051.63;;;23.11;53.42
9141;BME280;46330;50.822;7.126;2022-10-30T11:23:35;101048.22;;;23.35;53.38
9141;BME280;46330;50.822;7.126;2022-10-30T11:26:24;101042.75;;;23.51;52.81
9141;BME280;46330;50.822;7.126;2022-10-30T11:28:56;101045.81;;;23.18;53.02
9141;BME280;46330;50.822;7.126;2022-10-30T11:31:27;101051.22;;;23.58;53.04
9141;BME280;46330;50.822;7.126;2022-10-30T11:34:18;101039.06;;;23.13;52.57
9141;BME280;46330;50.822;7.126;2022-10-30T11:36:49;101031.00;;;23.27;52.81
9141;BME280;46330;50.822;7.126;2022-10-30T11:39:18;101027.50;;;23.12;51.93
9141;BME280;46330;50.822;7.126;2022-10-30T11:41:54;101029.75;;;23.59;50.62
9141;BME280;46330;50.822;7.126;2022-10-30T11:44:24;101031.22;;;23.50;51.45
9141;BME280;46330;50.822;7.126;2022-10-30T11:46:56;101015.63;;;23.57;49.03
9141;BME280;46330;50.822;7.126;2022-10-30T11:49:29;101020.81;;;23.85;49.49
9141;BME280;46330;50.822;7.126;2022-10-30T11:51:58;101025.63;;;23.80;49.03
9141;BME280;46330;50.822;7.126;2022-10-30T11:54:26;101020.25;;;23.68;48.68
9141;BME280;46330;50.822;7.126;2022-10-30T11:56:55;101021.97;;;23.69;49.29
9141;BME280;46330;50.822;7.126;2022-10-30T11:59:24;101024.41;;;23.59;49.66
9141;BME280;46330;50.822;7.126;2022-10-30T12:02:01;101010.03;;;23.74;49.71
9141;BME280;46330;50.822;7.126;2022-10-30T12:04:29;101010.69;;;23.51;49.36
9141;BME280;46330;50.822;7.126;2022-10-30T12:07:24;101008.34;;;23.98;48.99
9141;BME280;46330;50.822;7.126;2022-10-30T12:09:53;101013.59;;;24.00;47.88
9141;BME280;46330;50.822;7.126;2022-10-30T12:12:26;101016.66;;;23.81;49.29
9141;BME280;46330;50.822;7.126;2022-10-30T12:14:55;101010.50;;;24.06;49.38
9141;BME280;46330;50.822;7.126;2022-10-30T12:17:37;101009.50;;;24.07;48.51
9141;BME280;46330;50.822;7.126;2022-10-30T12:20:06;101016.31;;;24.25;47.67
9141;BME280;46330;50.822;7.126;2022-10-30T12:22:34;101007.59;;;23.96;48.13
9141;BME280;46330;50.822;7.126;2022-10-30T12:25:06;101014.94;;;23.80;47.72
9141;BME280;46330;50.822;7.126;2022-10-30T12:27:41;101012.38;;;23.91;47.58
9141;BME280;46330;50.822;7.126;2022-10-30T12:30:16;101009.09;;;24.13;47.46
9141;BME280;46330;50.822;7.126;2022-10-30T12:32:49;101016.13;;;24.01;46.44
9141;BME280;46330;50.822;7.126;2022-10-30T12:35:34;101009.84;;;24.02;46.60
9141;BME280;46330;50.822;7.126;2022-10-30T12:38:05;101012.97;;;24.34;46.78
9141;BME280;46330;50.822;7.126;2022-10-30T12:40:40;101012.59;;;23.88;46.48
9141;BME280;46330;50.822;7.126;2022-10-30T12:43:15;101011.34;;;23.94;47.67
9141;BME280;46330;50.822;7.126;2022-10-30T12:45:47;101006.22;;;23.91;47.17
9141;BME280;46330;50.822;7.126;2022-10-30T12:48:23;101006.69;;;23.71;47.54
9141;BME280;46330;50.822;7.126;2022-10-30T12:53:37;101007.91;;;23.92;49.26
9141;BME280;46330;50.822;7.126;2022-10-30T12:56:13;101009.53;;;23.55;49.85
9141;BME280;46330;50.822;7.126;2022-10-30T12:58:47;101015.25;;;23.63;49.75
9141;BME280;46330;50.822;7.126;2022-10-30T13:01:23;101013.59;;;24.00;47.72
9141;BME280;46330;50.822;7.126;2022-10-30T13:03:59;101008.88;;;23.51;46.69
9141;BME280;46330;50.822;7.126;2022-10-30T13:06:38;101014.16;;;23.53;46.68
9141;BME280;46330;50.822;7.126;2022-10-30T13:09:15;101003.34;;;23.28;46.75
9141;BME280;46330;50.822;7.126;2022-10-30T13:11:50;101005.81;;;23.58;46.75
9141;BME280;46330;50.822;7.126;2022-10-30T13:14:32;101004.28;;;23.41;46.49
9141;BME280;46330;50.822;7.126;2022-10-30T13:17:01;100999.91;;;23.40;47.30
9141;BME280;46330;50.822;7.126;2022-10-30T13:19:30;100996.06;;;23.44;47.97
9141;BME280;46330;50.822;7.126;2022-10-30T13:22:01;100989.88;;;23.29;46.71
9141;BME280;46330;50.822;7.126;2022-10-30T13:24:43;100991.34;;;23.21;47.68
9141;BME280;46330;50.822;7.126;2022-10-30T13:27:15;100993.03;;;23.09;47.55
9141;BME280;46330;50.822;7.126;2022-10-30T13:29:53;100993.38;;;22.90;48.26
9141;BME280;46330;50.822;7.126;2022-10-30T13:32:34;100989.22;;;22.99;48.49
9141;BME280;46330;50.822;7.126;2022-10-30T13:35:18;100991.81;;;23.00;48.45
9141;BME280;46330;50.822;7.126;2022-10-30T13:37:55;100981.38;;;22.83;47.91